Time;durP1;ratioP1;P1;durP2;ratioP2;P2;SDS_P1;SDS_P2;PMS_P1;PMS_P2;Temp;Humidity;BMP_temperature;BMP_pressure;BME280_temperature;BME280_humidity;BME280_pressure;Samples;Min_cycle;Max_cycle;Signal;HPM_P1;HPM_P2
2022/04/18 00:00:00;;;;;;;1.20;1.10;;;22.10;31.10;;;;;;5041148;28;20021;-77
2022/04/18 00:02:26;;;;;;;1.48;1.00;;;22.10;31.10;;;;;;5023937;28;20025;-77
2022/04/18 00:04:52;;;;;;;1.20;1.00;;;22.10;31.10;;;;;;5042403;28;20098;-77
2022/04/18 00:07:18;;;;;;;1.00;0.90;;;22.10;31.10;;;;;;5029766;28;20017;-76
2022/04/18 00:09:44;;;;;;;1.08;0.98;;;22.10;31.10;;;;;;5051442;28;20025;-77
2022/04/18 00:12:11;;;;;;;1.00;0.90;;;22.10;31.10;;;;;;5048835;28;20052;-77
2022/04/18 00:14:38;;;;;;;1.13;1.02;;;22.10;31.10;;;;;;5050769;28;20042;-76
2022/04/18 00:17:09;;;;;;;1.13;0.90;;;22.10;31.20;;;;;;5032642;28;20049;-76
2022/04/18 00:19:36;;;;;;;1.10;1.00;;;22.10;31.20;;;;;;5048448;28;20017;-76
2022/04/18 00:22:02;;;;;;;1.00;0.90;;;22.10;31.20;;;;;;5032147;28;20025;-76
2022/04/18 00:24:28;;;;;;;0.95;0.85;;;22.10;31.20;;;;;;5049020;28;20025;-76
2022/04/18 00:26:55;;;;;;;1.20;0.95;;;22.00;31.20;;;;;;5053055;28;20052;-76
2022/04/18 00:29:21;;;;;;;1.10;1.00;;;22.10;31.20;;;;;;5052541;28;20700;-77
2022/04/18 00:31:47;;;;;;;1.45;1.00;;;22.00;31.20;;;;;;5036568;28;20412;-77
2022/04/18 00:34:14;;;;;;;1.17;1.00;;;22.00;31.20;;;;;;5053766;28;20025;-77
2022/04/18 00:36:40;;;;;;;1.00;0.90;;;22.10;31.20;;;;;;5054197;28;20018;-76
2022/04/18 00:39:06;;;;;;;1.45;1.00;;;22.00;31.20;;;;;;5052045;28;20116;-77
2022/04/18 00:41:31;;;;;;;1.00;0.90;;;22.10;31.20;;;;;;5034009;28;20034;-77
2022/04/18 00:43:58;;;;;;;1.50;1.08;;;22.00;31.20;;;;;;5053340;28;20465;-76
2022/04/18 00:46:24;;;;;;;1.10;0.90;;;22.00;31.20;;;;;;5055803;28;20032;-77
2022/04/18 00:48:50;;;;;;;1.15;0.90;;;22.00;31.20;;;;;;5056227;28;20018;-78
2022/04/18 00:51:19;;;;;;;1.20;1.00;;;22.00;31.20;;;;;;5040432;28;20025;-77
2022/04/18 00:53:45;;;;;;;0.98;0.80;;;22.00;31.20;;;;;;5057727;28;20044;-78
2022/04/18 00:56:17;;;;;;;1.30;1.17;;;22.00;31.30;;;;;;5058672;28;20018;-77
2022/04/18 00:58:43;;;;;;;1.90;1.00;;;22.00;31.30;;;;;;5057689;28;20010;-77
2022/04/18 01:01:09;;;;;;;1.00;0.85;;;22.00;31.20;;;;;;5055946;28;20044;-77
2022/04/18 01:03:35;;;;;;;1.77;0.90;;;22.00;31.30;;;;;;5053493;28;20026;-77
2022/04/18 01:06:03;;;;;;;1.92;0.93;;;22.00;31.30;;;;;;5053980;28;20009;-78
2022/04/18 01:08:29;;;;;;;1.27;1.10;;;21.90;31.30;;;;;;5051386;28;20040;-79
2022/04/18 01:10:55;;;;;;;2.45;1.20;;;22.00;31.30;;;;;;5041842;28;20029;-81
2022/04/18 01:13:22;;;;;;;0.98;0.75;;;22.00;31.30;;;;;;5042574;28;20064;-80
2022/04/18 01:15:54;;;;;;;1.50;1.00;;;21.90;31.30;;;;;;5042622;28;20037;-79
2022/04/18 01:18:20;;;;;;;1.40;1.00;;;21.90;31.40;;;;;;5044405;28;20073;-80
2022/04/18 01:20:46;;;;;;;1.30;1.10;;;21.90;31.40;;;;;;5043125;28;20029;-78
2022/04/18 01:23:14;;;;;;;1.00;0.88;;;21.90;31.40;;;;;;5044438;28;20071;-78
2022/04/18 01:31:08;;;;;;;1.38;1.00;;;21.90;31.40;;;;;;5046031;28;20052;-77
2022/04/18 01:33:34;;;;;;;1.17;1.00;;;21.90;31.40;;;;;;5046155;28;20064;-78
2022/04/18 01:36:00;;;;;;;1.35;1.00;;;21.90;31.40;;;;;;5047776;28;20038;-78
2022/04/18 01:38:26;;;;;;;2.30;1.00;;;21.90;31.40;;;;;;5045727;28;20116;-77
2022/04/18 01:40:52;;;;;;;1.10;1.00;;;21.90;31.50;;;;;;5045470;28;20075;-78
2022/04/18 01:43:18;;;;;;;1.30;1.10;;;21.90;31.40;;;;;;5042730;28;20020;-77
2022/04/18 01:45:45;;;;;;;1.95;1.10;;;21.90;31.50;;;;;;5026861;28;20084;-76
2022/04/18 01:48:11;;;;;;;1.08;0.88;;;21.90;31.50;;;;;;5042101;28;20017;-78
2022/04/18 01:50:37;;;;;;;1.00;0.90;;;21.90;31.50;;;;;;5042597;28;20017;-76
2022/04/18 01:53:04;;;;;;;1.67;1.15;;;21.80;31.40;;;;;;5041254;28;20049;-77
2022/04/18 01:55:30;;;;;;;1.10;1.00;;;21.80;31.50;;;;;;5003683;28;20017;-77
2022/04/18 01:57:57;;;;;;;1.45;0.98;;;21.80;31.50;;;;;;5040185;28;20025;-77
2022/04/18 02:00:23;;;;;;;1.13;0.95;;;21.80;31.50;;;;;;5038902;28;20464;-77
2022/04/18 02:02:49;;;;;;;1.20;0.98;;;21.80;32.20;;;;;;5038797;28;20029;-78
2022/04/18 02:05:15;;;;;;;1.08;0.98;;;21.80;31.50;;;;;;5040960;28;20036;-77
2022/04/18 02:07:41;;;;;;;1.77;1.20;;;21.80;31.60;;;;;;5041745;28;20049;-77
2022/04/18 02:10:08;;;;;;;1.63;1.08;;;21.80;31.50;;;;;;5040770;28;20026;-77
2022/04/18 02:12:35;;;;;;;2.83;1.30;;;21.80;31.60;;;;;;5041171;28;20028;-76
2022/04/18 02:15:01;;;;;;;1.58;1.10;;;21.80;31.60;;;;;;5039568;28;20029;-77
2022/04/18 02:17:28;;;;;;;1.67;1.23;;;21.80;31.60;;;;;;5037068;28;20121;-77
2022/04/18 02:19:54;;;;;;;1.00;0.90;;;21.80;31.60;;;;;;5037781;28;20017;-76
2022/04/18 02:22:23;;;;;;;2.28;1.20;;;21.80;31.70;;;;;;5036404;28;20036;-76
2022/04/18 02:24:49;;;;;;;1.55;1.17;;;21.80;31.60;;;;;;5036587;28;20014;-78
2022/04/18 02:27:16;;;;;;;1.05;0.95;;;21.80;31.70;;;;;;5034128;28;20072;-77
2022/04/18 02:29:43;;;;;;;1.55;1.10;;;21.80;31.70;;;;;;5034344;28;20021;-79
2022/04/18 02:34:54;;;;;;;1.60;1.00;;;21.80;31.80;;;;;;5033248;28;20570;-79
2022/04/18 02:37:20;;;;;;;1.23;1.13;;;21.80;31.70;;;;;;5033213;28;20025;-79
2022/04/18 02:39:46;;;;;;;1.73;1.00;;;21.70;31.70;;;;;;5039833;28;20029;-80
2022/04/18 02:42:12;;;;;;;1.27;1.00;;;21.80;31.80;;;;;;5041288;28;20064;-80
2022/04/18 02:44:38;;;;;;;1.60;1.20;;;21.80;31.80;;;;;;5041556;28;20550;-80
2022/04/18 02:47:04;;;;;;;1.85;1.30;;;21.80;31.80;;;;;;5041863;28;20021;-80
2022/04/18 02:49:31;;;;;;;1.50;1.10;;;21.70;31.70;;;;;;5040745;28;20040;-79
2022/04/18 02:51:57;;;;;;;1.40;1.00;;;21.70;31.80;;;;;;5040402;28;20080;-81
2022/04/18 02:54:23;;;;;;;2.25;1.20;;;21.70;31.70;;;;;;5052793;28;20032;-78
2022/04/18 02:56:49;;;;;;;1.80;1.02;;;21.70;31.80;;;;;;5034069;28;20047;-78
2022/04/18 02:59:15;;;;;;;1.10;0.93;;;21.70;31.70;;;;;;5034993;28;20018;-78
2022/04/18 03:01:42;;;;;;;1.48;1.23;;;21.70;31.70;;;;;;5033994;28;20103;-78
2022/04/18 03:04:08;;;;;;;1.30;1.00;;;21.70;31.80;;;;;;5034548;28;20010;-78
2022/04/18 03:06:34;;;;;;;1.88;1.35;;;21.70;31.80;;;;;;5035319;28;20033;-80
2022/04/18 03:09:01;;;;;;;1.85;1.20;;;21.70;31.80;;;;;;5019652;28;20376;-79
2022/04/18 03:11:28;;;;;;;1.33;1.23;;;21.70;31.70;;;;;;5037204;28;20025;-78
2022/04/18 03:13:55;;;;;;;2.63;1.67;;;21.70;31.90;;;;;;5035700;28;20018;-79
2022/04/18 03:16:21;;;;;;;1.60;1.20;;;21.70;31.80;;;;;;5019260;28;20037;-79
2022/04/18 03:18:47;;;;;;;1.83;1.50;;;21.70;31.80;;;;;;5035565;28;20029;-78
2022/04/18 03:21:16;;;;;;;2.03;1.27;;;21.70;31.90;;;;;;5035571;28;20041;-78
2022/04/18 03:23:44;;;;;;;2.08;1.20;;;21.70;31.80;;;;;;5037342;28;20044;-78
2022/04/18 03:26:10;;;;;;;1.40;1.27;;;21.60;31.90;;;;;;5038280;28;20029;-79
2022/04/18 03:28:36;;;;;;;2.65;1.42;;;21.70;31.80;;;;;;5037857;28;20018;-80
2022/04/18 03:31:02;;;;;;;1.98;1.08;;;21.70;31.80;;;;;;5038387;28;20487;-78
2022/04/18 03:33:29;;;;;;;1.35;1.20;;;21.70;31.90;;;;;;5036212;28;20029;-79
2022/04/18 03:41:33;;;;;;;1.95;1.25;;;21.70;31.80;;;;;;5033361;28;20156;-80
2022/04/18 03:43:59;;;;;;;1.83;1.35;;;21.70;31.90;;;;;;5016368;28;20030;-80
2022/04/18 03:46:27;;;;;;;1.70;1.30;;;21.70;31.80;;;;;;5034759;28;20029;-81
2022/04/18 03:48:53;;;;;;;2.13;1.42;;;21.70;31.90;;;;;;5038671;28;20020;-80
2022/04/18 03:51:19;;;;;;;1.67;1.40;;;21.60;31.80;;;;;;5020194;28;20021;-80
2022/04/18 03:53:45;;;;;;;1.77;1.27;;;21.60;31.80;;;;;;5037909;28;20025;-80
2022/04/18 03:56:11;;;;;;;2.05;1.27;;;21.60;31.90;;;;;;5023304;28;20079;-80
2022/04/18 03:58:37;;;;;;;2.92;1.30;;;21.60;31.90;;;;;;5039913;28;20026;-80
2022/04/18 04:01:04;;;;;;;2.22;1.35;;;21.60;31.90;;;;;;5039648;28;20032;-80
2022/04/18 04:03:31;;;;;;;2.05;1.50;;;21.60;31.90;;;;;;5041563;28;20021;-81
2022/04/18 04:05:58;;;;;;;1.67;1.25;;;21.60;31.90;;;;;;5040267;28;20018;-81
2022/04/18 04:08:25;;;;;;;1.65;1.10;;;21.60;31.90;;;;;;5041670;28;20021;-82
2022/04/18 04:10:52;;;;;;;1.25;1.05;;;21.50;31.90;;;;;;5038932;28;20018;-81
2022/04/18 04:13:17;;;;;;;2.92;1.50;;;21.60;31.90;;;;;;5037723;28;20014;-81
2022/04/18 04:15:44;;;;;;;1.33;1.20;;;21.60;31.80;;;;;;5038150;28;20063;-83
2022/04/18 04:18:11;;;;;;;1.40;1.27;;;21.60;31.90;;;;;;5039165;28;20465;-81
2022/04/18 04:20:37;;;;;;;1.58;1.30;;;21.50;32.40;;;;;;5038374;28;20028;-81
2022/04/18 04:23:04;;;;;;;1.60;1.20;;;21.60;31.90;;;;;;5038502;28;20026;-81
2022/04/18 04:25:31;;;;;;;1.48;1.17;;;21.60;31.90;;;;;;5040044;28;20021;-81
2022/04/18 04:27:57;;;;;;;1.73;1.13;;;21.60;31.90;;;;;;5056106;28;20500;-80
2022/04/18 04:30:22;;;;;;;1.63;1.30;;;21.50;31.90;;;;;;5041283;28;20026;-82
2022/04/18 04:32:50;;;;;;;1.75;1.40;;;21.60;31.90;;;;;;5042369;28;20068;-81
2022/04/18 04:35:17;;;;;;;2.15;1.40;;;21.50;31.80;;;;;;5042403;28;20547;-82
2022/04/18 04:37:43;;;;;;;1.45;1.20;;;21.50;31.80;;;;;;5042816;28;20021;-81
2022/04/18 04:40:13;;;;;;;2.20;1.38;;;21.50;31.90;;;;;;5041993;28;20017;-79
2022/04/18 04:42:39;;;;;;;2.35;1.20;;;21.50;31.80;;;;;;5041114;28;20018;-80
2022/04/18 04:45:06;;;;;;;1.98;1.42;;;21.50;31.80;;;;;;5041485;28;20095;-80
2022/04/18 04:47:32;;;;;;;1.52;1.30;;;21.50;31.80;;;;;;5043394;28;20033;-81
2022/04/18 04:49:58;;;;;;;1.67;1.20;;;21.50;31.90;;;;;;5041402;28;20017;-80
2022/04/18 04:52:24;;;;;;;1.90;1.20;;;21.50;31.80;;;;;;5040437;28;20025;-80
2022/04/18 04:54:51;;;;;;;1.42;1.20;;;21.50;31.80;;;;;;5039869;28;20510;-79
2022/04/18 04:57:20;;;;;;;2.80;1.35;;;21.50;31.80;;;;;;5036598;28;20052;-79
2022/04/18 04:59:46;;;;;;;2.10;1.20;;;21.50;31.80;;;;;;5036523;28;20519;-79
2022/04/18 05:02:12;;;;;;;1.58;1.13;;;21.50;31.70;;;;;;5019811;28;20031;-79
2022/04/18 05:04:37;;;;;;;1.60;1.20;;;21.60;31.60;;;;;;5036447;28;20020;-78
2022/04/18 05:07:04;;;;;;;1.75;1.10;;;21.60;31.60;;;;;;5036255;28;20485;-80
2022/04/18 05:09:29;;;;;;;1.38;1.10;;;21.70;31.50;;;;;;5037907;28;20101;-81
2022/04/18 05:11:55;;;;;;;2.47;1.02;;;21.70;31.50;;;;;;5037629;28;20566;-79
2022/04/18 05:14:21;;;;;;;1.50;1.30;;;21.70;31.40;;;;;;5037821;28;20028;-79
2022/04/18 05:16:48;;;;;;;1.40;1.23;;;21.70;31.40;;;;;;5035963;28;20045;-79
2022/04/18 05:19:15;;;;;;;2.45;1.40;;;21.80;31.60;;;;;;5036291;28;20025;-79
2022/04/18 05:21:42;;;;;;;1.70;1.25;;;21.80;31.80;;;;;;5037706;28;20113;-80
2022/04/18 05:24:08;;;;;;;1.70;1.33;;;21.90;31.80;;;;;;5051637;28;20022;-78
2022/04/18 05:26:34;;;;;;;1.50;1.10;;;22.10;31.50;;;;;;5035902;28;20045;-81
2022/04/18 05:29:01;;;;;;;2.30;1.40;;;22.20;31.40;;;;;;5034903;28;20017;-80
2022/04/18 05:31:28;;;;;;;1.70;1.30;;;22.40;31.10;;;;;;5035742;28;20017;-80
2022/04/18 05:33:55;;;;;;;1.83;1.20;;;22.50;30.80;;;;;;5050250;28;20167;-81
2022/04/18 05:36:22;;;;;;;1.63;1.30;;;22.60;30.30;;;;;;5034761;28;20017;-80
2022/04/18 05:38:48;;;;;;;1.45;1.20;;;22.80;30.20;;;;;;5034676;28;20017;-82
2022/04/18 05:41:15;;;;;;;1.50;1.27;;;22.90;30.00;;;;;;5037034;28;20030;-82
2022/04/18 05:43:42;;;;;;;2.08;1.30;;;23.00;30.00;;;;;;5039016;28;20089;-81
2022/04/18 05:46:07;;;;;;;2.35;1.20;;;23.10;29.80;;;;;;5039166;28;20025;-82
2022/04/18 05:48:33;;;;;;;1.73;1.20;;;23.20;29.80;;;;;;5039167;28;20645;-81
2022/04/18 05:50:59;;;;;;;1.52;1.17;;;23.30;29.60;;;;;;5040986;28;20472;-82
2022/04/18 05:53:26;;;;;;;1.60;1.38;;;23.40;29.50;;;;;;5038976;28;20022;-81
2022/04/18 05:55:52;;;;;;;1.67;1.10;;;23.40;29.30;;;;;;5035777;28;20564;-81
2022/04/18 05:58:18;;;;;;;2.35;1.00;;;23.50;29.30;;;;;;5036298;28;20081;-80
2022/04/18 06:00:45;;;;;;;1.58;1.10;;;23.60;29.30;;;;;;5037429;28;20025;-82
2022/04/18 06:03:12;;;;;;;1.70;1.10;;;23.60;29.20;;;;;;5019643;28;20026;-80
2022/04/18 06:05:38;;;;;;;1.77;1.25;;;23.70;29.10;;;;;;5035328;28;20052;-79
2022/04/18 06:08:05;;;;;;;2.08;1.15;;;23.90;29.00;;;;;;5034628;28;20079;-80
2022/04/18 06:10:40;;;;;;;1.20;1.10;;;24.10;29.20;;;;;;5034848;28;20016;-79
2022/04/18 06:13:07;;;;;;;1.38;1.00;;;24.30;28.70;;;;;;5035629;28;20112;-80
2022/04/18 06:15:33;;;;;;;1.48;1.00;;;24.40;28.50;;;;;;5035780;28;20083;-79
2022/04/18 06:18:00;;;;;;;1.42;1.05;;;24.50;28.30;;;;;;5034860;28;20041;-80
2022/04/18 06:20:26;;;;;;;2.60;1.20;;;24.60;28.30;;;;;;5035420;28;20071;-79
2022/04/18 06:22:51;;;;;;;1.70;1.08;;;24.70;28.20;;;;;;5034786;28;20037;-80
2022/04/18 06:25:18;;;;;;;1.83;1.20;;;24.70;28.10;;;;;;5035929;28;20052;-81
2022/04/18 06:27:44;;;;;;;1.85;1.10;;;24.70;28.10;;;;;;5018988;28;20033;-80
2022/04/18 06:30:10;;;;;;;1.30;1.05;;;24.60;28.00;;;;;;5035199;28;20422;-82
2022/04/18 06:32:36;;;;;;;2.33;1.08;;;24.60;28.00;;;;;;5035212;28;20021;-82
2022/04/18 06:35:03;;;;;;;1.55;1.00;;;24.50;28.10;;;;;;5018684;28;20014;-82
2022/04/18 06:37:29;;;;;;;1.60;1.10;;;24.50;28.20;;;;;;5035078;28;20587;-82
2022/04/18 06:39:55;;;;;;;1.15;1.05;;;24.50;28.20;;;;;;5019401;28;20017;-81
2022/04/18 06:42:21;;;;;;;1.00;0.88;;;24.50;28.20;;;;;;5033915;28;20461;-82
2022/04/18 06:44:48;;;;;;;1.25;1.13;;;24.50;28.20;;;;;;5035270;28;20022;-80
2022/04/18 06:47:14;;;;;;;1.58;1.05;;;24.40;28.20;;;;;;5034263;28;20028;-82
2022/04/18 06:49:40;;;;;;;1.48;1.10;;;24.40;28.20;;;;;;5033731;28;20532;-83
2022/04/18 06:52:06;;;;;;;1.80;1.30;;;24.40;28.30;;;;;;5017412;28;20045;-82
2022/04/18 06:54:32;;;;;;;1.75;1.23;;;24.30;28.70;;;;;;5017995;28;20025;-85
2022/04/18 06:57:01;;;;;;;1.55;1.00;;;24.20;28.30;;;;;;5035648;28;20026;-84
2022/04/18 06:59:30;;;;;;;1.60;1.10;;;24.20;28.40;;;;;;5034089;28;20037;-82
2022/04/18 07:01:56;;;;;;;2.28;1.30;;;24.30;28.50;;;;;;5033452;28;20061;-82
2022/04/18 07:04:23;;;;;;;1.83;1.30;;;24.40;28.50;;;;;;5033529;28;20025;-84
2022/04/18 07:06:50;;;;;;;1.27;0.98;;;24.40;28.30;;;;;;5035081;28;20059;-83
2022/04/18 07:09:16;;;;;;;0.93;0.82;;;24.60;28.20;;;;;;5035351;28;20093;-84
2022/04/18 07:11:45;;;;;;;1.88;1.40;;;24.70;28.20;;;;;;5037720;28;20014;-83
2022/04/18 07:14:14;;;;;;;1.45;0.80;;;24.80;28.10;;;;;;5039694;28;20052;-84
2022/04/18 07:16:40;;;;;;;1.80;0.93;;;25.00;27.90;;;;;;5039163;28;20052;-84
2022/04/18 07:19:06;;;;;;;1.15;0.90;;;25.20;27.80;;;;;;5038233;28;20032;-83
2022/04/18 07:21:33;;;;;;;1.63;1.00;;;25.30;27.60;;;;;;5040297;28;20488;-83
2022/04/18 07:23:59;;;;;;;2.17;1.05;;;25.40;27.50;;;;;;5023160;28;20045;-83
2022/04/18 07:26:25;;;;;;;1.13;0.95;;;25.60;27.40;;;;;;5020862;28;20552;-81
2022/04/18 07:28:50;;;;;;;1.38;0.90;;;25.70;27.40;;;;;;5037336;28;20040;-82
2022/04/18 07:31:16;;;;;;;1.70;1.15;;;25.80;27.30;;;;;;5037151;28;20477;-80
2022/04/18 07:33:43;;;;;;;1.20;0.98;;;25.90;27.10;;;;;;5037151;28;20017;-82
2022/04/18 07:36:09;;;;;;;1.10;0.90;;;26.00;27.00;;;;;;5036932;28;20014;-81
2022/04/18 07:38:50;;;;;;;2.70;1.10;;;26.20;26.90;;;;;;5037238;28;20079;-81
2022/04/18 07:41:22;;;;;;;1.40;1.05;;;26.20;26.80;;;;;;5039641;28;20041;-81
2022/04/18 07:43:49;;;;;;;1.23;1.00;;;26.30;26.70;;;;;;5038966;28;20092;-81
2022/04/18 07:46:15;;;;;;;1.58;1.00;;;26.40;26.70;;;;;;5039057;28;20030;-81
2022/04/18 07:48:41;;;;;;;1.05;0.90;;;26.40;26.60;;;;;;5039262;28;20112;-81
2022/04/18 07:53:51;;;;;;;1.42;1.15;;;26.50;26.50;;;;;;5038871;28;20037;-80
2022/04/18 07:56:20;;;;;;;1.15;0.90;;;26.60;26.50;;;;;;5037305;28;20026;-81
2022/04/18 07:58:47;;;;;;;2.28;1.00;;;26.60;26.50;;;;;;5038624;28;20089;-80
2022/04/18 08:01:13;;;;;;;1.55;0.95;;;26.70;26.50;;;;;;5036888;28;20037;-80
2022/04/18 08:03:39;;;;;;;1.38;1.10;;;26.80;26.40;;;;;;5036732;28;20047;-79
2022/04/18 08:06:05;;;;;;;2.22;0.98;;;26.90;26.30;;;;;;5019730;28;20029;-80
2022/04/18 08:08:31;;;;;;;1.30;1.00;;;27.00;26.20;;;;;;5036764;28;20445;-81
2022/04/18 08:10:58;;;;;;;1.63;1.00;;;27.10;26.10;;;;;;5037751;28;20033;-80
2022/04/18 08:13:24;;;;;;;1.73;1.00;;;27.20;25.90;;;;;;5037729;28;20080;-81
2022/04/18 08:15:51;;;;;;;1.48;1.00;;;27.40;25.90;;;;;;5037743;28;20061;-80
2022/04/18 08:18:17;;;;;;;2.17;1.00;;;27.40;25.80;;;;;;5036965;28;20032;-80
2022/04/18 08:20:43;;;;;;;1.63;1.00;;;27.40;25.80;;;;;;5020464;28;20505;-81
2022/04/18 08:23:10;;;;;;;1.20;1.00;;;27.50;25.70;;;;;;5036192;28;20018;-79
2022/04/18 08:25:36;;;;;;;1.30;1.05;;;27.50;25.70;;;;;;5020682;28;20025;-78
2022/04/18 08:28:02;;;;;;;1.20;0.90;;;27.50;25.80;;;;;;5019489;28;20021;-79
2022/04/18 08:30:28;;;;;;;1.95;1.13;;;27.50;25.60;;;;;;5019273;28;20112;-79
2022/04/18 08:32:54;;;;;;;1.25;1.02;;;27.60;25.70;;;;;;5035027;28;20443;-79
2022/04/18 08:35:20;;;;;;;2.45;0.90;;;27.60;25.60;;;;;;5019434;28;20032;-78
2022/04/18 08:37:48;;;;;;;1.08;0.82;;;27.80;25.50;;;;;;5035992;28;20030;-78
2022/04/18 08:40:14;;;;;;;1.40;1.10;;;27.90;25.60;;;;;;5020407;28;20030;-80
2022/04/18 08:42:40;;;;;;;1.52;1.10;;;27.90;25.50;;;;;;5019941;28;20089;-78
2022/04/18 08:45:09;;;;;;;1.30;0.90;;;28.00;25.50;;;;;;5036182;28;20021;-81
2022/04/18 08:53:05;;;;;;;1.52;0.93;;;28.10;25.30;;;;;;5035670;28;20088;-79
2022/04/18 08:55:31;;;;;;;2.33;1.30;;;28.20;25.30;;;;;;5034740;28;20017;-78
2022/04/18 08:57:57;;;;;;;1.10;0.90;;;28.20;25.20;;;;;;5034443;28;20026;-78
2022/04/18 09:00:23;;;;;;;1.95;0.85;;;28.30;25.10;;;;;;5034636;28;20017;-79
2022/04/18 09:02:49;;;;;;;1.42;1.00;;;28.30;25.20;;;;;;5034766;28;20075;-80
2022/04/18 09:05:15;;;;;;;1.63;0.90;;;28.30;25.00;;;;;;5034880;28;20029;-78
2022/04/18 09:07:45;;;;;;;1.25;1.00;;;28.30;25.10;;;;;;5034028;28;20018;-79
2022/04/18 09:10:11;;;;;;;1.00;0.70;;;28.30;25.00;;;;;;5017712;28;20017;-79
2022/04/18 09:12:42;;;;;;;1.00;0.93;;;28.30;25.20;;;;;;5018274;28;20275;-80
2022/04/18 09:15:09;;;;;;;1.55;0.90;;;28.40;25.10;;;;;;5034624;28;20052;-79
2022/04/18 09:17:35;;;;;;;1.42;0.90;;;28.50;25.10;;;;;;5034431;28;20037;-79
2022/04/18 09:20:08;;;;;;;1.88;1.02;;;28.50;25.00;;;;;;5034608;28;20026;-78
2022/04/18 09:22:45;;;;;;;2.05;1.10;;;28.50;25.00;;;;;;5034158;28;20075;-79
2022/04/18 09:25:18;;;;;;;1.45;0.98;;;28.50;25.00;;;;;;5017881;28;20073;-78
2022/04/18 09:27:55;;;;;;;1.67;1.10;;;28.50;25.00;;;;;;5035596;28;20123;-81
2022/04/18 09:30:21;;;;;;;1.60;1.13;;;28.50;25.00;;;;;;5034799;28;20092;-82
2022/04/18 09:33:00;;;;;;;1.35;0.90;;;28.50;25.00;;;;;;5034830;28;20021;-82
2022/04/18 09:35:27;;;;;;;1.38;0.95;;;28.60;25.00;;;;;;5034452;28;20024;-81
2022/04/18 09:37:56;;;;;;;1.17;0.95;;;28.50;25.00;;;;;;5034551;28;20041;-81
2022/04/18 09:40:23;;;;;;;1.20;0.90;;;28.50;25.00;;;;;;5033654;28;20025;-81
2022/04/18 09:42:52;;;;;;;1.15;0.90;;;28.50;25.00;;;;;;5033739;28;20082;-81
2022/04/18 09:45:18;;;;;;;1.88;0.80;;;28.50;25.00;;;;;;5017359;28;20017;-81
2022/04/18 09:47:52;;;;;;;1.30;0.85;;;28.50;25.10;;;;;;5033528;28;20053;-81
2022/04/18 09:53:06;;;;;;;1.80;0.90;;;28.60;25.10;;;;;;5033745;28;20040;-80
2022/04/18 09:55:32;;;;;;;1.63;1.10;;;28.50;25.00;;;;;;5033451;28;20024;-81
2022/04/18 09:58:02;;;;;;;1.20;0.90;;;28.50;25.10;;;;;;5033214;28;20037;-81
2022/04/18 10:00:28;;;;;;;1.35;1.02;;;28.50;25.20;;;;;;5032596;28;20044;-81
2022/04/18 10:02:54;;;;;;;2.13;1.00;;;28.40;25.10;;;;;;5032311;28;20033;-81
2022/04/18 10:05:19;;;;;;;1.52;0.90;;;28.50;25.20;;;;;;5032218;28;20020;-81
2022/04/18 10:07:47;;;;;;;1.00;0.85;;;28.40;25.20;;;;;;5032425;28;20104;-83
2022/04/18 10:10:13;;;;;;;1.55;1.10;;;28.30;25.10;;;;;;5032114;28;20036;-82
2022/04/18 10:12:38;;;;;;;1.50;0.95;;;28.40;25.20;;;;;;5032053;28;20556;-82
2022/04/18 10:15:08;;;;;;;1.20;0.95;;;28.30;25.20;;;;;;5032220;28;20056;-82
2022/04/18 10:17:33;;;;;;;1.40;0.95;;;28.30;25.30;;;;;;5033051;28;20052;-82
2022/04/18 10:20:05;;;;;;;1.30;0.95;;;28.20;25.20;;;;;;5015850;28;20396;-83
2022/04/18 10:22:50;;;;;;;1.65;0.95;;;28.20;25.30;;;;;;5033191;28;20034;-80
2022/04/18 10:26:10;;;;;;;2.00;1.20;;;28.20;25.40;;;;;;5020733;28;20084;-83
2022/04/18 10:28:38;;;;;;;1.05;0.85;;;28.20;25.40;;;;;;4993867;28;20076;-82
2022/04/18 10:31:16;;;;;;;1.77;0.93;;;28.10;25.90;;;;;;4977525;28;20022;-82
2022/04/18 10:33:42;;;;;;;1.17;1.00;;;28.10;25.50;;;;;;4975921;28;20019;-81
2022/04/18 10:36:09;;;;;;;1.42;0.90;;;28.00;25.50;;;;;;4976210;28;20109;-84
2022/04/18 10:38:36;;;;;;;1.33;0.90;;;27.90;25.60;;;;;;4992727;28;20105;-80
2022/04/18 10:41:15;;;;;;;1.85;1.10;;;27.90;25.60;;;;;;4991779;28;20073;-81
2022/04/18 10:44:00;;;;;;;1.52;1.00;;;27.90;25.70;;;;;;4992065;28;20104;-82
2022/04/18 10:46:26;;;;;;;1.05;0.80;;;27.80;25.70;;;;;;4991818;28;20145;-80
2022/04/18 10:49:33;;;;;;;1.73;0.90;;;27.70;25.70;;;;;;4991889;28;20096;-79
2022/04/18 10:52:09;;;;;;;1.20;0.80;;;27.70;25.80;;;;;;4992398;28;20034;-80
2022/04/18 10:54:37;;;;;;;0.90;0.80;;;27.60;25.80;;;;;;4976619;28;20021;-82
2022/04/18 10:57:12;;;;;;;1.70;0.95;;;27.60;26.00;;;;;;4979076;28;20511;-80
2022/04/18 10:59:42;;;;;;;1.77;0.90;;;27.50;26.00;;;;;;4980746;28;20029;-80
2022/04/18 11:02:08;;;;;;;1.13;0.80;;;27.40;26.10;;;;;;5015728;28;20038;-81
2022/04/18 11:04:40;;;;;;;1.50;0.98;;;27.40;26.10;;;;;;5037102;28;20463;-81
2022/04/18 11:07:09;;;;;;;1.70;1.20;;;27.40;26.10;;;;;;5038224;28;20022;-81
2022/04/18 11:09:38;;;;;;;1.20;0.90;;;27.30;26.10;;;;;;5039008;28;20021;-81
2022/04/18 11:12:13;;;;;;;1.10;0.98;;;27.30;26.20;;;;;;5042195;28;20045;-80
2022/04/18 11:14:52;;;;;;;1.63;1.38;;;27.20;26.20;;;;;;5042059;28;20029;-79
2022/04/18 11:17:28;;;;;;;1.25;1.00;;;27.10;26.30;;;;;;5055578;28;20077;-82
2022/04/18 11:19:55;;;;;;;1.80;1.33;;;27.10;26.30;;;;;;5058085;28;20017;-82
2022/04/18 11:22:22;;;;;;;1.38;1.08;;;27.00;26.40;;;;;;5057618;28;20028;-80
2022/04/18 11:24:51;;;;;;;1.60;1.13;;;27.00;26.40;;;;;;5057776;28;20043;-80
2022/04/18 11:27:20;;;;;;;1.83;1.10;;;26.90;26.40;;;;;;5060153;28;20048;-79
2022/04/18 11:29:59;;;;;;;1.92;1.00;;;26.90;26.40;;;;;;5059456;28;20014;-80
2022/04/18 11:32:28;;;;;;;1.45;0.90;;;26.80;26.50;;;;;;5059843;28;20026;-80
2022/04/18 11:34:54;;;;;;;1.42;0.90;;;26.80;26.50;;;;;;5060017;28;20046;-80
2022/04/18 11:37:33;;;;;;;1.63;1.08;;;26.70;26.60;;;;;;5060126;28;20045;-80
2022/04/18 11:40:04;;;;;;;1.55;1.05;;;26.70;26.60;;;;;;5036275;28;20100;-81
2022/04/18 11:42:31;;;;;;;1.23;0.90;;;26.60;27.10;;;;;;5036544;28;20476;-80
2022/04/18 11:45:02;;;;;;;1.45;0.93;;;26.60;26.70;;;;;;5020993;28;20060;-82
2022/04/18 11:47:29;;;;;;;1.00;0.80;;;26.50;26.80;;;;;;5019730;28;20005;-81
2022/04/18 11:50:01;;;;;;;2.03;1.00;;;26.40;26.70;;;;;;5036658;28;20014;-80
2022/04/18 11:52:28;;;;;;;0.93;0.82;;;26.40;26.80;;;;;;5037985;28;20021;-81
2022/04/18 11:55:03;;;;;;;0.98;0.80;;;26.30;26.80;;;;;;5021220;28;20468;-80
2022/04/18 11:57:31;;;;;;;1.20;1.02;;;26.20;26.90;;;;;;5023664;28;20743;-79
2022/04/18 11:59:57;;;;;;;1.30;0.80;;;26.20;27.00;;;;;;5036019;28;20041;-80
2022/04/18 12:07:57;;;;;;;1.48;0.95;;;26.00;27.20;;;;;;5035758;28;20024;-78
2022/04/18 12:10:25;;;;;;;0.90;0.80;;;26.00;27.30;;;;;;5036079;28;20021;-78
2022/04/18 12:12:51;;;;;;;1.40;0.93;;;25.90;27.30;;;;;;5018822;28;20567;-78
2022/04/18 12:15:22;;;;;;;1.70;1.10;;;25.80;27.40;;;;;;5035092;28;20021;-78
2022/04/18 12:17:48;;;;;;;1.88;1.10;;;25.80;27.40;;;;;;5035171;28;20083;-79
2022/04/18 12:20:24;;;;;;;1.23;0.90;;;25.70;27.50;;;;;;5035349;28;20087;-78
2022/04/18 12:22:55;;;;;;;2.35;1.10;;;25.70;27.50;;;;;;5018592;28;20040;-78
2022/04/18 12:25:25;;;;;;;1.40;0.90;;;25.70;27.50;;;;;;5034322;28;20490;-78
2022/04/18 12:27:51;;;;;;;1.42;0.90;;;25.60;27.60;;;;;;5034609;28;20035;-77
2022/04/18 12:30:17;;;;;;;1.77;1.00;;;25.60;27.60;;;;;;5033859;28;20016;-77
2022/04/18 12:32:47;;;;;;;1.38;0.95;;;25.50;27.50;;;;;;5033893;28;20375;-77
2022/04/18 12:35:14;;;;;;;1.50;0.80;;;25.50;27.70;;;;;;5033878;28;20030;-78
2022/04/18 12:37:52;;;;;;;1.52;1.10;;;25.40;27.70;;;;;;5034069;28;20024;-77
2022/04/18 12:40:18;;;;;;;1.50;1.05;;;25.40;27.70;;;;;;5034689;28;20112;-77
2022/04/18 12:42:50;;;;;;;1.60;1.10;;;25.40;27.70;;;;;;5018308;28;20468;-78
2022/04/18 12:45:16;;;;;;;1.27;0.98;;;25.30;27.70;;;;;;5018582;28;20104;-77
2022/04/18 12:47:42;;;;;;;1.20;0.88;;;25.30;27.80;;;;;;5035627;28;20048;-78
2022/04/18 12:50:11;;;;;;;1.77;0.93;;;25.30;27.90;;;;;;5035496;28;20492;-78
2022/04/18 12:52:49;;;;;;;1.63;1.00;;;25.20;27.90;;;;;;5036012;28;20014;-78
2022/04/18 12:55:15;;;;;;;1.48;1.13;;;25.20;27.90;;;;;;5034091;28;20025;-79
2022/04/18 12:57:45;;;;;;;1.58;1.00;;;25.20;28.00;;;;;;5033901;28;20472;-80
2022/04/18 13:00:14;;;;;;;1.40;1.00;;;25.20;28.00;;;;;;5035081;28;20089;-78
2022/04/18 13:02:40;;;;;;;1.30;0.80;;;25.10;28.00;;;;;;5034357;28;20067;-79
2022/04/18 13:05:07;;;;;;;1.13;1.00;;;25.10;28.00;;;;;;5033477;28;20021;-78
2022/04/18 13:07:40;;;;;;;1.63;0.82;;;25.10;28.10;;;;;;5033555;28;20018;-78
2022/04/18 13:10:07;;;;;;;1.70;1.05;;;25.00;28.00;;;;;;5017723;28;20014;-78
2022/04/18 13:12:33;;;;;;;1.42;0.93;;;25.00;28.00;;;;;;5033892;28;20140;-80
2022/04/18 13:15:05;;;;;;;1.35;1.00;;;25.00;28.10;;;;;;5033756;28;20143;-78
2022/04/18 13:17:35;;;;;;;0.98;0.85;;;25.00;28.20;;;;;;5033249;28;20069;-78
2022/04/18 13:20:06;;;;;;;1.00;0.90;;;25.00;28.10;;;;;;5016689;28;20013;-78